Melissa, Texas
Current Conditions -  °F | °C
As of 1:53 AM on Wednesday 26 Nov 2014 (Local Time) from KTKI Reporting Station
Clear Clear  
Wind Chill: 32°   Ceiling: Unl
Heat Index: 37°   Visibility: 10mi
Dew Point: 30°   Wind: 7mph
Humidity: 76%   Direction: 160°SSE
Pressure: 30.06"   Gusts: NA
Location:  33.29°N, 96.57°W
Report Text: KTKI 260753Z AUTO 16006KT 10SM CLR 03/M01 A3006 RMK AO2 SLP187 T00281011
Loading
Personal Weather Stations






























Interactive Weather Map New forecast layout! Learn more

10-Day Weather Forecast

Advertisements
Track Severe Weather on mobile